Time;durP1;ratioP1;P1;durP2;ratioP2;P2;SDS_P1;SDS_P2;PMS_P1;PMS_P2;Temp;Humidity;BMP_temperature;BMP_pressure;BME280_temperature;BME280_humidity;BME280_pressure;Samples;Min_cycle;Max_cycle;Signal;HPM_P1;HPM_P2
2021/05/11 00:00:18;;;;;;;3.28;2.97;;;18.90;67.20;;;;;;2106291;28;20490;-67
2021/05/11 00:01:18;;;;;;;3.80;3.00;;;18.90;67.10;;;;;;2106152;28;20012;-66
2021/05/11 00:02:19;;;;;;;3.78;3.47;;;18.80;67.90;;;;;;2106502;28;20020;-67
2021/05/11 00:03:20;;;;;;;3.58;3.22;;;18.90;66.90;;;;;;2106552;28;20028;-67
2021/05/11 00:04:21;;;;;;;4.95;3.35;;;18.90;67.00;;;;;;2106324;28;20051;-68
2021/05/11 00:05:22;;;;;;;5.70;3.40;;;18.90;66.80;;;;;;2106449;28;20536;-68
2021/05/11 00:06:23;;;;;;;6.63;4.03;;;18.90;66.70;;;;;;2106366;28;20502;-68
2021/05/11 00:07:23;;;;;;;5.25;3.85;;;18.90;66.60;;;;;;2106427;28;20122;-68
2021/05/11 00:08:24;;;;;;;4.43;3.78;;;18.90;66.30;;;;;;2106366;28;20024;-69
2021/05/11 00:09:25;;;;;;;5.25;4.03;;;18.90;66.30;;;;;;2106228;28;20032;-69
2021/05/11 00:10:27;;;;;;;4.25;3.50;;;18.90;66.50;;;;;;2106420;28;20391;-68
2021/05/11 00:11:28;;;;;;;3.78;3.38;;;18.90;66.30;;;;;;2105971;28;20177;-68
2021/05/11 00:12:29;;;;;;;4.38;3.33;;;18.90;66.30;;;;;;2106266;28;20082;-67
2021/05/11 00:13:29;;;;;;;4.18;3.50;;;18.90;66.40;;;;;;2106103;28;20024;-68
2021/05/11 00:14:30;;;;;;;4.40;3.55;;;18.90;66.40;;;;;;2105990;28;20063;-68
2021/05/11 00:15:30;;;;;;;3.40;3.10;;;18.90;66.50;;;;;;2106365;28;20024;-68
2021/05/11 00:16:31;;;;;;;4.05;3.50;;;18.90;66.50;;;;;;2106202;28;20028;-68
2021/05/11 00:17:32;;;;;;;3.80;3.40;;;18.90;66.60;;;;;;2106376;28;20042;-68
2021/05/11 00:18:33;;;;;;;3.85;3.40;;;18.80;66.70;;;;;;2106263;28;20115;-68
2021/05/11 00:19:35;;;;;;;3.83;3.33;;;18.80;66.70;;;;;;2106186;28;20012;-68
2021/05/11 00:20:36;;;;;;;3.70;3.20;;;18.80;66.90;;;;;;2106305;28;20020;-68
2021/05/11 00:21:37;;;;;;;4.18;3.40;;;18.80;67.00;;;;;;2105847;28;20086;-68
2021/05/11 00:22:37;;;;;;;4.47;3.53;;;18.80;67.00;;;;;;2088400;28;20109;-68
2021/05/11 00:23:38;;;;;;;4.28;3.70;;;18.70;67.00;;;;;;2080496;28;20025;-68
2021/05/11 00:24:39;;;;;;;4.50;3.50;;;18.70;67.00;;;;;;2088884;28;20044;-68
2021/05/11 00:25:39;;;;;;;3.70;3.40;;;18.70;67.00;;;;;;2088937;28;20059;-68
2021/05/11 00:26:40;;;;;;;4.35;3.53;;;18.80;67.20;;;;;;2088994;28;20021;-68
2021/05/11 00:27:42;;;;;;;3.85;3.30;;;18.70;67.30;;;;;;2098580;28;20036;-68
2021/05/11 00:28:43;;;;;;;4.70;3.65;;;18.70;67.30;;;;;;2082664;28;20053;-68
2021/05/11 00:29:43;;;;;;;4.43;3.60;;;18.70;67.40;;;;;;2088923;28;20064;-68
2021/05/11 00:30:45;;;;;;;4.75;3.67;;;18.70;67.40;;;;;;2098436;28;20024;-68
2021/05/11 00:31:45;;;;;;;4.07;3.40;;;18.70;67.50;;;;;;2096441;28;20123;-67
2021/05/11 00:32:46;;;;;;;4.10;3.70;;;18.60;67.60;;;;;;2089616;28;20111;-67
2021/05/11 00:33:47;;;;;;;6.32;3.72;;;18.60;67.70;;;;;;2098630;28;20044;-67
2021/05/11 00:34:47;;;;;;;4.45;3.67;;;18.70;67.70;;;;;;2106143;28;20038;-67
2021/05/11 00:35:48;;;;;;;4.40;3.72;;;18.60;67.60;;;;;;2106033;28;20035;-68
2021/05/11 00:36:49;;;;;;;5.15;3.63;;;18.60;67.70;;;;;;2105945;28;20111;-67
2021/05/11 00:37:50;;;;;;;5.43;3.55;;;18.60;67.80;;;;;;2106235;28;20071;-67
2021/05/11 00:38:51;;;;;;;6.18;3.95;;;18.60;67.90;;;;;;2096024;28;20024;-67
2021/05/11 00:39:52;;;;;;;6.65;4.20;;;18.60;67.80;;;;;;2088928;28;20032;-67
2021/05/11 00:40:52;;;;;;;6.10;4.00;;;18.70;67.70;;;;;;2098793;28;20044;-68
2021/05/11 00:41:53;;;;;;;6.18;4.00;;;18.60;67.60;;;;;;2105982;28;20056;-68
2021/05/11 00:42:54;;;;;;;5.38;4.25;;;18.70;67.60;;;;;;2095340;28;20424;-68
2021/05/11 00:43:54;;;;;;;6.50;4.30;;;18.70;67.60;;;;;;2088596;28;20091;-69
2021/05/11 00:44:55;;;;;;;8.38;4.30;;;18.70;67.50;;;;;;2099245;28;20036;-67
2021/05/11 00:45:58;;;;;;;6.07;4.30;;;18.70;67.30;;;;;;2106062;28;20036;-67
2021/05/11 00:47:04;;;;;;;5.22;4.07;;;18.80;67.30;;;;;;2095301;28;20028;-67
2021/05/11 00:48:05;;;;;;;6.95;4.20;;;18.80;67.40;;;;;;2089551;28;20825;-68
2021/05/11 00:49:06;;;;;;;5.38;4.20;;;18.80;67.10;;;;;;2100356;28;20020;-68
2021/05/11 00:50:07;;;;;;;5.80;4.18;;;18.80;67.80;;;;;;2106011;28;20421;-68
2021/05/11 00:51:09;;;;;;;8.00;4.20;;;18.80;66.90;;;;;;2105769;28;20031;-68
2021/05/11 00:52:09;;;;;;;5.03;3.92;;;18.80;66.80;;;;;;2105919;28;20489;-68
2021/05/11 00:53:11;;;;;;;5.53;4.03;;;18.80;66.80;;;;;;2093817;28;20021;-68
2021/05/11 00:54:11;;;;;;;6.38;4.05;;;18.80;66.70;;;;;;2092026;28;20043;-68
2021/05/11 00:55:12;;;;;;;6.90;4.03;;;18.90;66.60;;;;;;2105901;28;20081;-68
2021/05/11 00:56:14;;;;;;;5.68;4.00;;;18.80;66.70;;;;;;2105888;28;20555;-68
2021/05/11 00:57:16;;;;;;;8.30;4.13;;;18.80;66.70;;;;;;2105820;28;20039;-68
2021/05/11 00:58:16;;;;;;;5.80;4.10;;;18.80;66.80;;;;;;2098054;28;20025;-68
2021/05/11 00:59:24;;;;;;;6.07;4.00;;;18.80;66.80;;;;;;2097643;28;20460;-67
2021/05/11 01:00:26;;;;;;;7.07;3.88;;;18.80;66.90;;;;;;2105982;28;20012;-67
2021/05/11 01:01:26;;;;;;;4.20;3.80;;;18.80;67.20;;;;;;2091338;28;20037;-68
2021/05/11 01:02:27;;;;;;;5.63;3.92;;;18.80;67.30;;;;;;2088559;28;20036;-68
2021/05/11 01:03:28;;;;;;;5.38;3.95;;;18.80;67.40;;;;;;2088519;28;20024;-68
2021/05/11 01:04:29;;;;;;;4.10;3.70;;;18.70;67.40;;;;;;2088605;28;20432;-69
2021/05/11 01:05:30;;;;;;;5.57;3.88;;;18.70;67.60;;;;;;2103334;28;20024;-68
2021/05/11 01:06:31;;;;;;;4.47;3.80;;;18.70;67.80;;;;;;2105675;28;20032;-69
2021/05/11 01:07:32;;;;;;;4.57;3.70;;;18.60;67.90;;;;;;2105695;28;20032;-67
2021/05/11 01:08:33;;;;;;;4.47;3.88;;;18.60;68.90;;;;;;2105662;28;20573;-66
2021/05/11 01:09:34;;;;;;;4.85;3.92;;;18.60;68.30;;;;;;2090472;28;20095;-67
2021/05/11 01:10:36;;;;;;;5.30;3.97;;;18.60;68.20;;;;;;2088650;28;20495;-67
2021/05/11 01:11:38;;;;;;;6.28;4.10;;;18.60;68.10;;;;;;2103848;28;20028;-67
2021/05/11 01:12:39;;;;;;;8.25;3.90;;;18.60;68.00;;;;;;2089916;28;20033;-68
2021/05/11 01:13:39;;;;;;;4.47;3.92;;;18.60;68.20;;;;;;2088417;28;20052;-68
2021/05/11 01:14:40;;;;;;;4.28;3.78;;;18.60;68.10;;;;;;2104277;28;20032;-69
2021/05/11 01:15:46;;;;;;;4.60;3.60;;;18.60;68.30;;;;;;2089756;28;20029;-66
2021/05/11 01:16:52;;;;;;;3.75;3.30;;;18.50;68.30;;;;;;2089132;28;20025;-66
2021/05/11 01:18:00;;;;;;;3.63;3.33;;;18.50;68.40;;;;;;2088485;28;20083;-66
2021/05/11 01:19:13;;;;;;;4.00;3.60;;;18.50;68.60;;;;;;2081254;28;20060;-67
2021/05/11 01:20:24;;;;;;;5.32;3.83;;;18.40;68.80;;;;;;2080260;28;20171;-67
2021/05/11 01:22:47;;;;;;;4.50;3.45;;;18.40;69.50;;;;;;2083945;28;20029;-68
2021/05/11 01:24:02;;;;;;;4.43;3.70;;;18.40;69.80;;;;;;2090894;28;20036;-67
2021/05/11 01:25:30;;;;;;;4.25;3.70;;;18.30;70.10;;;;;;2095216;28;20039;-68
2021/05/11 01:26:46;;;;;;;4.78;3.75;;;18.30;70.50;;;;;;2096280;28;20414;-66
2021/05/11 01:27:58;;;;;;;4.47;3.63;;;18.30;70.60;;;;;;2096738;28;20037;-69
2021/05/11 01:30:43;;;;;;;4.00;3.45;;;18.20;70.80;;;;;;2105757;28;20020;-67
2021/05/11 01:45:18;;;;;;;7.35;4.40;;;18.10;71.90;;;;;;2105615;28;20047;-66
2021/05/11 01:47:25;;;;;;;8.55;4.68;;;18.10;71.70;;;;;;2094510;28;20028;-67
2021/05/11 01:50:10;;;;;;;4.65;4.20;;;18.10;71.20;;;;;;2082363;28;20025;-68
2021/05/11 01:52:25;;;;;;;8.50;4.30;;;18.10;71.20;;;;;;2105437;28;20099;-67
2021/05/11 01:55:59;;;;;;;6.20;4.55;;;18.20;70.50;;;;;;2088051;28;20104;-66
2021/05/11 02:18:02;;;;;;;7.45;5.00;;;18.40;69.80;;;;;;2092526;28;20025;-67
2021/05/11 02:23:03;;;;;;;8.00;4.72;;;18.40;69.50;;;;;;2088245;28;20032;-67
2021/05/11 02:24:08;;;;;;;4.82;4.25;;;18.40;69.80;;;;;;2087871;28;20025;-67
2021/05/11 02:25:10;;;;;;;6.78;4.80;;;18.40;69.70;;;;;;2097598;28;20029;-67
2021/05/11 02:26:10;;;;;;;9.18;4.97;;;18.40;69.70;;;;;;2095545;28;20024;-67
2021/05/11 02:27:11;;;;;;;7.47;4.70;;;18.40;69.90;;;;;;2088116;28;20412;-67
2021/05/11 02:28:12;;;;;;;8.82;4.80;;;18.40;69.80;;;;;;2096100;28;20040;-68
2021/05/11 02:29:12;;;;;;;7.65;4.63;;;18.40;69.60;;;;;;2105418;28;20035;-67
2021/05/11 02:30:13;;;;;;;8.35;5.15;;;18.40;69.70;;;;;;2105306;28;20112;-69
2021/05/11 02:31:14;;;;;;;6.10;4.43;;;18.40;69.60;;;;;;2105198;28;20054;-67
2021/05/11 02:32:16;;;;;;;7.13;4.50;;;18.40;69.30;;;;;;2105321;28;20028;-70
2021/05/11 02:33:18;;;;;;;5.72;4.63;;;18.40;69.60;;;;;;2105205;28;20055;-68
2021/05/11 02:34:18;;;;;;;7.90;4.57;;;18.40;69.70;;;;;;2105120;28;20082;-67
2021/05/11 02:35:19;;;;;;;6.07;4.80;;;18.40;69.50;;;;;;2105288;28;20088;-69
2021/05/11 02:36:20;;;;;;;5.93;4.40;;;18.40;69.60;;;;;;2105150;28;20020;-67
2021/05/11 02:37:21;;;;;;;7.13;4.47;;;18.40;69.70;;;;;;2105219;28;20101;-67
2021/05/11 02:38:22;;;;;;;7.88;4.88;;;18.40;70.00;;;;;;2105125;28;20032;-67
2021/05/11 02:39:22;;;;;;;5.10;4.60;;;18.40;70.00;;;;;;2093688;28;20088;-67
2021/05/11 02:40:24;;;;;;;8.90;4.95;;;18.30;70.00;;;;;;2088080;28;20454;-69
2021/05/11 02:41:25;;;;;;;6.00;4.75;;;18.30;70.20;;;;;;2099524;28;20058;-67
2021/05/11 02:42:26;;;;;;;5.97;4.72;;;18.30;70.00;;;;;;2102555;28;20652;-69
2021/05/11 02:43:31;;;;;;;7.60;4.97;;;18.30;70.10;;;;;;2087953;28;20067;-68
2021/05/11 02:44:41;;;;;;;10.18;4.80;;;18.30;70.30;;;;;;2088609;28;20033;-69
2021/05/11 02:45:42;;;;;;;6.75;4.63;;;18.40;69.90;;;;;;2101906;28;20028;-68
2021/05/11 02:46:43;;;;;;;7.53;4.72;;;18.40;69.90;;;;;;2091149;28;20029;-68
2021/05/11 02:47:50;;;;;;;5.13;4.45;;;18.40;69.80;;;;;;2088463;28;20037;-70
2021/05/11 02:48:51;;;;;;;6.70;4.65;;;18.40;70.20;;;;;;2102964;28;20123;-68
2021/05/11 02:49:52;;;;;;;8.23;4.53;;;18.30;70.20;;;;;;2105047;28;20035;-67
2021/05/11 02:50:52;;;;;;;12.07;4.88;;;18.30;70.00;;;;;;2089756;28;20037;-67
2021/05/11 02:51:53;;;;;;;7.50;4.90;;;18.40;70.50;;;;;;2087916;28;20091;-68
2021/05/11 02:52:54;;;;;;;12.60;5.03;;;18.30;70.90;;;;;;2103409;28;20034;-68
2021/05/11 02:53:55;;;;;;;9.13;4.95;;;18.30;71.40;;;;;;2105011;28;20032;-67
2021/05/11 02:54:55;;;;;;;7.32;4.57;;;18.30;71.60;;;;;;2105086;28;20032;-67
2021/05/11 02:55:56;;;;;;;6.10;4.80;;;18.20;71.90;;;;;;2105105;28;20068;-68
2021/05/11 02:56:56;;;;;;;6.88;4.80;;;18.20;72.20;;;;;;2105020;28;20644;-67
2021/05/11 02:57:58;;;;;;;6.68;4.82;;;18.10;72.70;;;;;;2102473;28;20032;-68
2021/05/11 02:58:58;;;;;;;8.48;4.90;;;18.00;73.10;;;;;;2086624;28;20488;-67
2021/05/11 02:59:59;;;;;;;9.90;4.60;;;18.00;73.20;;;;;;2087676;28;20040;-67
2021/05/11 03:01:00;;;;;;;5.05;4.32;;;17.90;73.40;;;;;;2103743;28;20480;-69
2021/05/11 03:02:00;;;;;;;5.13;4.40;;;17.90;73.60;;;;;;2105107;28;20027;-68
2021/05/11 03:03:01;;;;;;;5.38;4.63;;;17.80;73.70;;;;;;2088844;28;20037;-67
2021/05/11 03:04:02;;;;;;;6.22;4.68;;;17.80;73.80;;;;;;2087790;28;20052;-69
2021/05/11 03:05:03;;;;;;;6.05;4.57;;;17.80;74.00;;;;;;2087988;28;20044;-67
2021/05/11 03:06:04;;;;;;;4.70;4.28;;;17.70;74.10;;;;;;2087973;28;20059;-68
2021/05/11 03:07:06;;;;;;;5.50;4.22;;;17.70;74.40;;;;;;2104988;28;20024;-69
2021/05/11 03:08:06;;;;;;;4.60;4.05;;;17.70;74.70;;;;;;2105033;28;20044;-68
2021/05/11 03:09:07;;;;;;;4.40;4.00;;;17.60;75.70;;;;;;2104987;28;20483;-68
2021/05/11 03:10:10;;;;;;;4.25;3.83;;;17.60;75.30;;;;;;2088103;28;20037;-67
2021/05/11 03:11:11;;;;;;;6.82;4.22;;;17.50;75.50;;;;;;2088203;28;20067;-69
2021/05/11 03:12:11;;;;;;;5.70;4.30;;;17.50;75.80;;;;;;2105269;28;20429;-68
2021/05/11 03:13:13;;;;;;;6.78;4.45;;;17.50;75.90;;;;;;2096040;28;20029;-69
2021/05/11 03:14:14;;;;;;;5.82;4.80;;;17.40;75.80;;;;;;2079956;28;20032;-68
2021/05/11 03:15:15;;;;;;;6.53;5.20;;;17.40;75.80;;;;;;2088028;28;20427;-68
2021/05/11 03:16:16;;;;;;;6.65;5.10;;;17.40;75.90;;;;;;2097423;28;20029;-68
2021/05/11 03:17:17;;;;;;;6.00;5.00;;;17.40;76.10;;;;;;2097168;28;20118;-68
2021/05/11 03:18:18;;;;;;;5.53;4.68;;;17.40;76.20;;;;;;2081152;28;20108;-68
2021/05/11 03:19:19;;;;;;;7.75;5.30;;;17.30;76.30;;;;;;2089555;28;20021;-68
2021/05/11 03:20:20;;;;;;;6.28;5.03;;;17.30;77.30;;;;;;2081050;28;20477;-68
2021/05/11 03:21:20;;;;;;;9.98;5.20;;;17.30;76.40;;;;;;2080921;28;20025;-68
2021/05/11 03:22:21;;;;;;;8.40;5.30;;;17.30;76.40;;;;;;2098862;28;20020;-68
2021/05/11 03:23:22;;;;;;;11.13;6.00;;;17.30;76.20;;;;;;2106635;28;20108;-67
2021/05/11 03:24:22;;;;;;;11.82;5.60;;;17.30;77.60;;;;;;2096674;28;20476;-68
2021/05/11 03:25:23;;;;;;;9.23;5.70;;;17.30;78.20;;;;;;2082076;28;20033;-68
2021/05/11 03:26:24;;;;;;;8.00;5.35;;;17.30;78.20;;;;;;2096459;28;20029;-68
2021/05/11 03:27:25;;;;;;;7.07;5.45;;;17.30;78.10;;;;;;2099375;28;20025;-68
2021/05/11 03:28:25;;;;;;;6.47;5.00;;;17.20;77.90;;;;;;2088585;28;20436;-68
2021/05/11 03:29:26;;;;;;;6.10;4.50;;;17.20;78.00;;;;;;2089247;28;20029;-68
2021/05/11 03:30:27;;;;;;;6.45;4.70;;;17.20;78.00;;;;;;2099475;28;20138;-67
2021/05/11 03:31:27;;;;;;;6.13;4.88;;;17.20;78.10;;;;;;2106257;28;20113;-67
2021/05/11 03:32:28;;;;;;;5.82;4.53;;;17.20;78.20;;;;;;2096149;28;20135;-65
2021/05/11 03:33:32;;;;;;;6.03;4.63;;;17.20;78.40;;;;;;2089631;28;20067;-69
2021/05/11 03:34:33;;;;;;;5.32;4.82;;;17.20;78.50;;;;;;2089120;28;20028;-69
2021/05/11 03:35:34;;;;;;;5.25;4.70;;;17.20;78.60;;;;;;2089361;28;20037;-68
2021/05/11 03:36:35;;;;;;;5.00;4.50;;;17.10;78.70;;;;;;2100465;28;20483;-68
2021/05/11 03:37:36;;;;;;;6.28;4.90;;;17.10;78.80;;;;;;2095304;28;20028;-68
2021/05/11 03:38:37;;;;;;;5.95;4.65;;;17.10;78.90;;;;;;2089456;28;20033;-69
2021/05/11 03:39:42;;;;;;;5.68;4.68;;;17.10;78.90;;;;;;2100670;28;20622;-68
2021/05/11 03:40:42;;;;;;;5.63;4.53;;;17.10;79.10;;;;;;2106512;28;20024;-68
2021/05/11 03:41:46;;;;;;;5.18;4.70;;;17.10;79.40;;;;;;2106175;28;20030;-68
2021/05/11 03:42:52;;;;;;;5.90;4.88;;;17.20;79.30;;;;;;2093879;28;20029;-69
2021/05/11 03:44:05;;;;;;;7.28;4.80;;;17.20;79.30;;;;;;2081492;28;20029;-68
2021/05/11 03:45:08;;;;;;;6.22;4.60;;;17.20;79.60;;;;;;2091055;28;20699;-67
2021/05/11 03:46:10;;;;;;;6.07;4.50;;;17.20;79.50;;;;;;2104576;28;20469;-69
2021/05/11 03:47:15;;;;;;;6.38;4.88;;;17.20;79.60;;;;;;2090661;28;20044;-66
2021/05/11 03:48:16;;;;;;;5.53;4.60;;;17.30;79.50;;;;;;2097185;28;20515;-68
2021/05/11 03:49:16;;;;;;;5.05;4.40;;;17.30;79.20;;;;;;2106511;28;20032;-67
2021/05/11 03:50:17;;;;;;;4.80;4.30;;;17.30;79.00;;;;;;2090261;28;20373;-68
2021/05/11 03:51:18;;;;;;;4.75;4.35;;;17.30;78.80;;;;;;2089127;28;20048;-69
2021/05/11 03:52:18;;;;;;;6.28;4.45;;;17.30;78.70;;;;;;2105647;28;20440;-69
2021/05/11 03:53:19;;;;;;;5.00;4.20;;;17.40;78.50;;;;;;2106516;28;20106;-67
2021/05/11 03:54:19;;;;;;;5.38;4.40;;;17.40;78.20;;;;;;2106377;28;20474;-69
2021/05/11 03:55:20;;;;;;;5.45;4.88;;;17.40;77.90;;;;;;2106475;28;20024;-67
2021/05/11 03:56:21;;;;;;;6.90;5.20;;;17.50;77.80;;;;;;2106383;28;20052;-67
2021/05/11 03:57:21;;;;;;;9.80;5.65;;;17.50;77.30;;;;;;2106387;28;20028;-67
2021/05/11 03:58:22;;;;;;;8.52;5.60;;;17.50;77.90;;;;;;2096751;28;20017;-68
2021/05/11 03:59:22;;;;;;;9.07;6.20;;;17.50;79.60;;;;;;2105659;28;20020;-67
2021/05/11 04:00:23;;;;;;;8.93;6.20;;;17.50;79.80;;;;;;2106636;28;20490;-68
2021/05/11 04:01:24;;;;;;;9.68;5.60;;;17.50;79.80;;;;;;2106138;28;20023;-68
2021/05/11 04:02:25;;;;;;;7.45;5.10;;;17.40;79.60;;;;;;2089876;28;20025;-67
2021/05/11 04:03:26;;;;;;;8.23;5.28;;;17.40;79.00;;;;;;2106495;28;20046;-68
2021/05/11 04:04:27;;;;;;;6.95;5.40;;;17.50;78.70;;;;;;2106226;28;20064;-68
2021/05/11 04:05:28;;;;;;;6.93;5.13;;;17.50;78.50;;;;;;2106388;28;20020;-67
2021/05/11 04:06:28;;;;;;;5.82;4.85;;;17.60;78.40;;;;;;2106378;28;20107;-68
2021/05/11 04:07:29;;;;;;;6.57;5.05;;;17.60;78.40;;;;;;2106374;28;20048;-67
2021/05/11 04:09:46;;;;;;;11.85;5.93;;;17.70;78.00;;;;;;2090619;28;20053;-67
2021/05/11 04:10:54;;;;;;;11.00;5.70;;;17.70;77.70;;;;;;2100991;28;20031;-67
2021/05/11 04:16:56;;;;;;;7.88;5.13;;;18.30;75.40;;;;;;2106119;28;20051;-67
2021/05/11 04:17:56;;;;;;;8.48;5.75;;;18.40;74.30;;;;;;2106076;28;20016;-67
2021/05/11 04:18:57;;;;;;;9.40;6.22;;;18.50;73.70;;;;;;2106204;28;20084;-67
2021/05/11 04:19:58;;;;;;;10.80;6.00;;;18.60;73.20;;;;;;2106059;28;20042;-68
2021/05/11 04:20:58;;;;;;;15.13;6.18;;;18.70;72.70;;;;;;2106214;28;20040;-67
2021/05/11 04:21:59;;;;;;;10.55;5.97;;;18.80;72.30;;;;;;2105808;28;20053;-67
2021/05/11 04:23:00;;;;;;;9.88;5.30;;;18.90;72.40;;;;;;2106238;28;20154;-67
2021/05/11 04:24:01;;;;;;;8.20;5.50;;;18.90;72.50;;;;;;2106038;28;20487;-68
2021/05/11 04:25:02;;;;;;;7.93;5.47;;;19.00;72.10;;;;;;2091960;28;20021;-69
2021/05/11 04:26:03;;;;;;;8.48;5.50;;;19.00;71.60;;;;;;2088817;28;20029;-67
2021/05/11 04:27:04;;;;;;;7.38;5.35;;;19.10;71.10;;;;;;2103089;28;20093;-70
2021/05/11 04:28:04;;;;;;;8.00;5.05;;;19.20;70.90;;;;;;2101315;28;20020;-66
2021/05/11 04:29:05;;;;;;;7.75;5.10;;;19.40;70.70;;;;;;2100770;28;20032;-69
2021/05/11 04:30:07;;;;;;;7.78;5.13;;;19.60;70.20;;;;;;2106086;28;20031;-67
2021/05/11 04:31:08;;;;;;;7.30;4.88;;;19.80;69.50;;;;;;2105902;28;20081;-69
2021/05/11 04:32:09;;;;;;;7.32;5.00;;;20.10;68.30;;;;;;2106252;28;20099;-68
2021/05/11 04:33:11;;;;;;;7.32;5.30;;;20.40;66.80;;;;;;2106002;28;20414;-67
2021/05/11 04:34:12;;;;;;;7.53;4.82;;;20.60;65.20;;;;;;2105926;28;20080;-66
2021/05/11 04:35:13;;;;;;;9.20;5.03;;;20.90;63.90;;;;;;2106269;28;20020;-67
2021/05/11 04:36:17;;;;;;;6.50;4.85;;;21.10;62.50;;;;;;2105952;28;20027;-69
2021/05/11 04:37:18;;;;;;;6.13;4.80;;;21.30;61.70;;;;;;2106069;28;20032;-69
2021/05/11 04:38:19;;;;;;;7.47;5.00;;;21.60;61.00;;;;;;2106035;28;20077;-67
2021/05/11 04:39:20;;;;;;;6.25;4.60;;;21.70;59.90;;;;;;2106007;28;20060;-67
2021/05/11 04:40:21;;;;;;;6.63;4.40;;;21.90;59.50;;;;;;2089157;28;20025;-68
2021/05/11 04:41:22;;;;;;;9.25;4.90;;;22.20;58.90;;;;;;2088585;28;20033;-67
2021/05/11 04:42:22;;;;;;;9.18;4.65;;;22.40;58.10;;;;;;2105549;28;20020;-67
2021/05/11 04:43:25;;;;;;;9.82;5.30;;;22.70;57.50;;;;;;2105968;28;20031;-68
2021/05/11 04:44:30;;;;;;;6.50;4.53;;;22.90;56.80;;;;;;2080618;28;20029;-67
2021/05/11 04:45:33;;;;;;;9.50;5.10;;;23.00;56.20;;;;;;2090211;28;20112;-68
2021/05/11 04:47:46;;;;;;;8.15;4.88;;;23.20;55.40;;;;;;2105939;28;20510;-67
2021/05/11 04:48:05;;;;;;;7.25;4.65;;;23.30;55.00;;;;;;2092221;28;20097;-67
2021/05/11 04:49:06;;;;;;;8.48;4.63;;;23.50;54.30;;;;;;2106038;28;20488;-67
2021/05/11 04:50:07;;;;;;;8.32;4.85;;;23.60;53.80;;;;;;2105893;28;20116;-69
2021/05/11 04:51:08;;;;;;;6.63;4.28;;;23.80;53.40;;;;;;2105704;28;20024;-67
2021/05/11 04:52:08;;;;;;;5.93;4.63;;;23.90;53.10;;;;;;2105979;28;20128;-67
2021/05/11 04:53:10;;;;;;;7.47;4.40;;;24.10;52.70;;;;;;2105855;28;20130;-68
2021/05/11 04:54:10;;;;;;;7.50;4.68;;;24.20;52.40;;;;;;2105790;28;20099;-67
2021/05/11 04:55:13;;;;;;;8.75;4.55;;;24.40;52.20;;;;;;2090778;28;20021;-68
2021/05/11 04:56:14;;;;;;;8.48;4.70;;;24.40;51.70;;;;;;2089060;28;20024;-68
2021/05/11 04:57:14;;;;;;;6.65;4.70;;;24.60;51.40;;;;;;2104475;28;20047;-68
2021/05/11 04:58:15;;;;;;;7.63;4.53;;;24.70;51.10;;;;;;2098414;28;20057;-66
2021/05/11 04:59:15;;;;;;;9.55;5.00;;;24.90;50.80;;;;;;2103131;28;20016;-68
2021/05/11 05:00:17;;;;;;;8.75;4.65;;;25.00;50.50;;;;;;2106083;28;20020;-68
2021/05/11 05:01:17;;;;;;;8.95;5.13;;;25.20;50.30;;;;;;2105641;28;20008;-68
2021/05/11 05:02:18;;;;;;;8.27;4.82;;;25.30;50.00;;;;;;2106007;28;20046;-68
2021/05/11 05:03:25;;;;;;;9.25;4.65;;;25.50;49.70;;;;;;2106029;28;20115;-67
2021/05/11 05:04:25;;;;;;;7.28;4.55;;;25.60;49.30;;;;;;2105971;28;20031;-67
2021/05/11 05:05:26;;;;;;;7.40;4.80;;;25.70;49.20;;;;;;2089379;28;20051;-65
2021/05/11 05:06:27;;;;;;;10.57;4.70;;;25.70;48.80;;;;;;2096568;28;20040;-67
2021/05/11 05:07:27;;;;;;;11.00;4.63;;;25.70;48.70;;;;;;2072109;28;20032;-68
2021/05/11 05:08:28;;;;;;;11.32;4.95;;;25.60;48.70;;;;;;2072157;28;20030;-68
2021/05/11 05:09:29;;;;;;;7.55;4.43;;;25.40;48.80;;;;;;2088703;28;20025;-68
2021/05/11 05:10:29;;;;;;;10.15;4.95;;;25.30;49.10;;;;;;2088664;28;20384;-68
2021/05/11 05:11:30;;;;;;;10.73;5.13;;;25.20;49.20;;;;;;2088336;28;20396;-68
2021/05/11 05:12:31;;;;;;;9.38;4.82;;;25.10;49.60;;;;;;2088485;28;20765;-68
2021/05/11 05:13:31;;;;;;;7.30;4.82;;;24.80;50.00;;;;;;2088704;28;20389;-67
2021/05/11 05:14:32;;;;;;;5.80;4.30;;;24.70;50.40;;;;;;2098020;28;20065;-68
2021/05/11 05:15:38;;;;;;;5.85;4.35;;;24.60;50.70;;;;;;2105598;28;20463;-67
2021/05/11 05:16:39;;;;;;;10.30;5.10;;;24.60;50.80;;;;;;2105628;28;20055;-67
2021/05/11 05:17:40;;;;;;;5.35;4.07;;;24.60;50.80;;;;;;2105613;28;20020;-68
2021/05/11 05:18:40;;;;;;;5.47;4.03;;;24.60;50.80;;;;;;2105680;28;20032;-68
2021/05/11 05:19:41;;;;;;;8.73;4.85;;;24.60;50.80;;;;;;2105592;28;20048;-68
2021/05/11 05:20:42;;;;;;;5.85;4.43;;;24.60;50.80;;;;;;2105590;28;20540;-68
2021/05/11 05:21:42;;;;;;;6.65;4.10;;;24.50;51.10;;;;;;2105387;28;20442;-68
2021/05/11 05:22:43;;;;;;;7.20;4.32;;;24.40;51.20;;;;;;2105670;28;20440;-68
2021/05/11 05:23:47;;;;;;;8.90;4.20;;;24.50;51.30;;;;;;2105550;28;20161;-68
2021/05/11 05:24:52;;;;;;;12.02;4.57;;;24.40;51.20;;;;;;2093822;28;20031;-68
2021/05/11 05:26:00;;;;;;;9.82;4.75;;;24.20;51.20;;;;;;2089141;28;20030;-67
2021/05/11 05:27:12;;;;;;;7.78;4.82;;;24.20;51.50;;;;;;2101811;28;20568;-69
2021/05/11 05:28:13;;;;;;;;;;;24.20;51.40;;;;;;2088101;28;20518;-67
2021/05/11 05:29:14;;;;;;;9.07;4.72;;;24.30;51.40;;;;;;2086403;28;19908;-69
2021/05/11 05:30:15;;;;;;;13.05;5.50;;;24.30;51.30;;;;;;2080064;28;20405;-66
2021/05/11 05:31:16;;;;;;;9.27;5.32;;;24.50;51.30;;;;;;2080149;28;20072;-68
2021/05/11 05:32:17;;;;;;;11.48;5.22;;;24.70;50.60;;;;;;2088399;28;20598;-67
2021/05/11 05:33:18;;;;;;;9.65;4.60;;;24.60;50.80;;;;;;2088229;28;20029;-68
2021/05/11 05:34:18;;;;;;;6.82;4.10;;;24.80;50.50;;;;;;2103876;28;20032;-67
2021/05/11 05:35:19;;;;;;;6.47;3.60;;;25.20;50.10;;;;;;2105555;28;20794;-68
2021/05/11 05:36:21;;;;;;;8.77;4.45;;;25.50;49.50;;;;;;2105460;28;20028;-67
2021/05/11 05:37:21;;;;;;;8.55;5.05;;;25.70;48.90;;;;;;2105487;28;20097;-69
2021/05/11 05:38:22;;;;;;;10.05;4.60;;;25.80;48.80;;;;;;2105479;28;20020;-69
2021/05/11 05:39:28;;;;;;;6.32;4.05;;;25.60;48.60;;;;;;2104893;28;20116;-69
2021/05/11 05:40:29;;;;;;;9.43;4.47;;;25.70;48.60;;;;;;2097055;28;20013;-68
2021/05/11 05:41:31;;;;;;;7.55;4.20;;;25.50;48.70;;;;;;2096925;28;20365;-67
2021/05/11 05:42:31;;;;;;;8.18;4.00;;;25.20;48.50;;;;;;2089492;28;20401;-68
2021/05/11 05:43:32;;;;;;;5.85;3.65;;;25.10;48.30;;;;;;2105413;28;20024;-69
2021/05/11 05:44:33;;;;;;;7.68;3.65;;;25.10;48.50;;;;;;2105366;28;20031;-68
2021/05/11 05:45:34;;;;;;;6.25;3.65;;;25.10;48.80;;;;;;2105637;28;20114;-68
2021/05/11 05:46:35;;;;;;;4.85;3.30;;;25.20;48.60;;;;;;2105457;28;20583;-70
2021/05/11 05:47:36;;;;;;;7.28;3.72;;;25.30;48.50;;;;;;2105386;28;20032;-69
2021/05/11 05:48:36;;;;;;;5.25;3.65;;;25.40;48.20;;;;;;2105387;28;20031;-69
2021/05/11 05:49:44;;;;;;;5.45;3.47;;;25.50;48.00;;;;;;2105294;28;20432;-69
2021/05/11 05:50:45;;;;;;;7.68;3.72;;;25.60;47.90;;;;;;2105454;28;20476;-69
2021/05/11 05:51:49;;;;;;;10.25;3.60;;;25.70;48.00;;;;;;2105013;28;20468;-69
2021/05/11 05:52:53;;;;;;;8.85;3.90;;;25.70;47.80;;;;;;2105639;28;20673;-71
2021/05/11 05:53:54;;;;;;;7.15;3.72;;;25.40;48.00;;;;;;2105417;28;20383;-69
2021/05/11 05:54:55;;;;;;;5.95;3.55;;;25.40;47.70;;;;;;2105212;28;20027;-69
2021/05/11 05:55:55;;;;;;;3.50;3.20;;;25.50;47.80;;;;;;2105582;28;20020;-70
2021/05/11 05:56:56;;;;;;;11.65;4.05;;;25.70;47.90;;;;;;2105683;28;20395;-68
2021/05/11 05:57:57;;;;;;;10.10;3.80;;;25.70;47.50;;;;;;2103242;28;20024;-69
2021/05/11 05:58:58;;;;;;;9.65;3.90;;;25.30;47.60;;;;;;2096070;28;20027;-69
2021/05/11 05:59:59;;;;;;;6.55;3.80;;;25.00;48.40;;;;;;2105282;28;20092;-69
2021/05/11 06:01:03;;;;;;;6.68;3.38;;;25.00;48.30;;;;;;2092631;28;20090;-68
2021/05/11 06:02:04;;;;;;;5.32;3.70;;;24.90;48.30;;;;;;2084461;28;20025;-68
2021/05/11 06:04:26;;;;;;;5.85;3.55;;;25.00;48.60;;;;;;2104517;28;20028;-67
2021/05/11 06:05:29;;;;;;;3.47;2.90;;;24.90;48.50;;;;;;2105270;28;20119;-68
2021/05/11 06:06:29;;;;;;;6.95;3.50;;;24.80;48.60;;;;;;2105348;28;20031;-68
2021/05/11 06:07:30;;;;;;;4.68;3.50;;;24.60;48.90;;;;;;2088238;28;20035;-67
2021/05/11 06:08:31;;;;;;;5.35;3.40;;;24.40;49.50;;;;;;2087858;28;20025;-67
2021/05/11 06:09:32;;;;;;;4.95;3.38;;;24.20;50.20;;;;;;2105219;28;20034;-69
2021/05/11 06:10:32;;;;;;;4.60;3.38;;;24.00;50.80;;;;;;2105208;28;20047;-67
2021/05/11 06:11:46;;;;;;;5.30;3.30;;;23.80;51.00;;;;;;2087670;28;20064;-66
2021/05/11 06:12:58;;;;;;;3.63;3.17;;;23.60;51.40;;;;;;2091580;28;20463;-68
2021/05/11 06:17:27;;;;;;;8.02;3.90;;;22.90;53.20;;;;;;2089490;28;20035;-68
2021/05/11 06:18:28;;;;;;;6.35;3.97;;;22.70;53.60;;;;;;2088825;28;20127;-68
2021/05/11 06:19:29;;;;;;;7.00;3.22;;;22.60;53.90;;;;;;2087829;28;20080;-69
2021/05/11 06:20:29;;;;;;;5.88;3.38;;;22.50;54.30;;;;;;2104221;28;20071;-68